sensor_id;sensor_type;location;lat;lon;timestamp;temperature;humidity
68511;SHT31;55512;50.102;19.958;2022-11-06T00:01:13;10.98;75.94
68511;SHT31;55512;50.102;19.958;2022-11-06T00:03:41;10.96;75.93
68511;SHT31;55512;50.102;19.958;2022-11-06T00:09:00;10.92;75.96
68511;SHT31;55512;50.102;19.958;2022-11-06T00:11:29;10.91;76.00
68511;SHT31;55512;50.102;19.958;2022-11-06T00:13:55;10.93;75.94
68511;SHT31;55512;50.102;19.958;2022-11-06T00:16:21;10.89;75.95
68511;SHT31;55512;50.102;19.958;2022-11-06T00:18:47;10.86;76.00
68511;SHT31;55512;50.102;19.958;2022-11-06T00:21:15;10.84;76.08
68511;SHT31;55512;50.102;19.958;2022-11-06T00:23:48;10.86;76.10
68511;SHT31;55512;50.102;19.958;2022-11-06T00:26:18;10.87;76.10
68511;SHT31;55512;50.102;19.958;2022-11-06T00:28:47;10.90;76.10
68511;SHT31;55512;50.102;19.958;2022-11-06T00:31:17;10.92;76.03
68511;SHT31;55512;50.102;19.958;2022-11-06T00:33:46;10.92;75.98
68511;SHT31;55512;50.102;19.958;2022-11-06T00:36:13;10.91;75.99
68511;SHT31;55512;50.102;19.958;2022-11-06T00:38:42;10.91;76.00
68511;SHT31;55512;50.102;19.958;2022-11-06T00:41:10;10.91;75.97
68511;SHT31;55512;50.102;19.958;2022-11-06T00:43:39;10.86;76.00
68511;SHT31;55512;50.102;19.958;2022-11-06T00:46:07;10.85;76.07
68511;SHT31;55512;50.102;19.958;2022-11-06T00:48:36;10.85;76.09
68511;SHT31;55512;50.102;19.958;2022-11-06T00:51:14;10.84;76.08
68511;SHT31;55512;50.102;19.958;2022-11-06T00:53:41;10.85;76.10
68511;SHT31;55512;50.102;19.958;2022-11-06T00:56:11;10.85;76.11
68511;SHT31;55512;50.102;19.958;2022-11-06T00:58:36;10.84;76.10
68511;SHT31;55512;50.102;19.958;2022-11-06T01:01:10;10.84;76.13
68511;SHT31;55512;50.102;19.958;2022-11-06T01:03:43;10.83;76.13
68511;SHT31;55512;50.102;19.958;2022-11-06T01:08:42;10.79;76.20
68511;SHT31;55512;50.102;19.958;2022-11-06T01:11:13;10.79;76.19
68511;SHT31;55512;50.102;19.958;2022-11-06T01:13:43;10.79;76.11
68511;SHT31;55512;50.102;19.958;2022-11-06T01:16:11;10.77;76.10
68511;SHT31;55512;50.102;19.958;2022-11-06T01:18:39;10.77;76.10
68511;SHT31;55512;50.102;19.958;2022-11-06T01:21:11;10.77;76.10
68511;SHT31;55512;50.102;19.958;2022-11-06T01:23:43;10.75;76.10
68511;SHT31;55512;50.102;19.958;2022-11-06T01:26:10;10.70;76.14
68511;SHT31;55512;50.102;19.958;2022-11-06T01:28:38;10.69;76.12
68511;SHT31;55512;50.102;19.958;2022-11-06T01:31:07;10.68;76.10
68511;SHT31;55512;50.102;19.958;2022-11-06T01:33:35;10.67;76.11
68511;SHT31;55512;50.102;19.958;2022-11-06T01:36:02;10.67;76.13
68511;SHT31;55512;50.102;19.958;2022-11-06T01:38:28;10.68;76.10
68511;SHT31;55512;50.102;19.958;2022-11-06T01:40:53;10.63;76.25
68511;SHT31;55512;50.102;19.958;2022-11-06T01:46:06;10.70;76.06
68511;SHT31;55512;50.102;19.958;2022-11-06T01:48:32;10.71;75.97
68511;SHT31;55512;50.102;19.958;2022-11-06T01:50:58;10.69;75.90
68511;SHT31;55512;50.102;19.958;2022-11-06T01:53:24;10.68;75.90
68511;SHT31;55512;50.102;19.958;2022-11-06T01:55:53;10.68;75.89
68511;SHT31;55512;50.102;19.958;2022-11-06T01:58:24;10.66;75.90
68511;SHT31;55512;50.102;19.958;2022-11-06T02:00:53;10.65;75.90
68511;SHT31;55512;50.102;19.958;2022-11-06T02:03:19;10.65;75.89
68511;SHT31;55512;50.102;19.958;2022-11-06T02:05:45;10.62;75.90
68511;SHT31;55512;50.102;19.958;2022-11-06T02:08:12;10.61;75.90
68511;SHT31;55512;50.102;19.958;2022-11-06T02:10:45;10.60;75.90
68511;SHT31;55512;50.102;19.958;2022-11-06T02:13:15;10.58;75.90
68511;SHT31;55512;50.102;19.958;2022-11-06T02:22:30;10.58;75.90
68511;SHT31;55512;50.102;19.958;2022-11-06T02:28:20;10.62;75.88
68511;SHT31;55512;50.102;19.958;2022-11-06T02:30:52;10.62;75.83
68511;SHT31;55512;50.102;19.958;2022-11-06T02:33:33;10.62;75.85
68511;SHT31;55512;50.102;19.958;2022-11-06T02:36:03;10.64;75.80
68511;SHT31;55512;50.102;19.958;2022-11-06T02:38:38;10.61;75.83
68511;SHT31;55512;50.102;19.958;2022-11-06T02:41:13;10.60;75.89
68511;SHT31;55512;50.102;19.958;2022-11-06T02:43:54;10.57;75.90
68511;SHT31;55512;50.102;19.958;2022-11-06T02:46:26;10.56;75.97
68511;SHT31;55512;50.102;19.958;2022-11-06T02:49:00;10.56;76.00
68511;SHT31;55512;50.102;19.958;2022-11-06T02:51:32;10.57;75.99
68511;SHT31;55512;50.102;19.958;2022-11-06T02:54:06;10.56;75.98
68511;SHT31;55512;50.102;19.958;2022-11-06T02:56:38;10.56;75.98
68511;SHT31;55512;50.102;19.958;2022-11-06T02:59:12;10.56;75.90
68511;SHT31;55512;50.102;19.958;2022-11-06T03:01:47;10.57;75.90
68511;SHT31;55512;50.102;19.958;2022-11-06T03:04:42;10.57;75.90
68511;SHT31;55512;50.102;19.958;2022-11-06T03:07:21;10.58;75.90
68511;SHT31;55512;50.102;19.958;2022-11-06T03:09:54;10.59;75.88
68511;SHT31;55512;50.102;19.958;2022-11-06T03:12:28;10.57;75.81
68511;SHT31;55512;50.102;19.958;2022-11-06T03:23:45;10.46;75.90
68511;SHT31;55512;50.102;19.958;2022-11-06T03:26:31;10.43;75.90
68511;SHT31;55512;50.102;19.958;2022-11-06T03:29:10;10.40;75.90
68511;SHT31;55512;50.102;19.958;2022-11-06T03:31:48;10.36;75.95
68511;SHT31;55512;50.102;19.958;2022-11-06T03:34:27;10.35;75.99
68511;SHT31;55512;50.102;19.958;2022-11-06T03:37:09;10.33;75.98
68511;SHT31;55512;50.102;19.958;2022-11-06T03:39:45;10.32;75.96
68511;SHT31;55512;50.102;19.958;2022-11-06T03:42:18;10.28;76.00
68511;SHT31;55512;50.102;19.958;2022-11-06T03:44:57;10.26;76.02
68511;SHT31;55512;50.102;19.958;2022-11-06T03:47:31;10.24;76.10
68511;SHT31;55512;50.102;19.958;2022-11-06T03:50:07;10.23;76.10
68511;SHT31;55512;50.102;19.958;2022-11-06T03:52:51;10.23;76.10
68511;SHT31;55512;50.102;19.958;2022-11-06T03:55:27;10.23;76.11
68511;SHT31;55512;50.102;19.958;2022-11-06T03:58:05;10.24;76.13
68511;SHT31;55512;50.102;19.958;2022-11-06T04:00:37;10.26;76.10
68511;SHT31;55512;50.102;19.958;2022-11-06T04:06:12;10.26;76.01
68511;SHT31;55512;50.102;19.958;2022-11-06T04:08:51;10.23;76.02
68511;SHT31;55512;50.102;19.958;2022-11-06T04:11:40;10.21;76.09
68511;SHT31;55512;50.102;19.958;2022-11-06T04:14:28;10.21;76.09
68511;SHT31;55512;50.102;19.958;2022-11-06T04:16:58;10.20;76.10
68511;SHT31;55512;50.102;19.958;2022-11-06T04:19:28;10.18;76.11
68511;SHT31;55512;50.102;19.958;2022-11-06T04:25:03;10.14;76.22
68511;SHT31;55512;50.102;19.958;2022-11-06T04:34:13;10.10;76.35
68511;SHT31;55512;50.102;19.958;2022-11-06T04:39:36;10.09;76.40
68511;SHT31;55512;50.102;19.958;2022-11-06T04:42:47;10.08;76.44
68511;SHT31;55512;50.102;19.958;2022-11-06T04:45:26;10.06;76.49
68511;SHT31;55512;50.102;19.958;2022-11-06T04:48:01;10.03;76.50
68511;SHT31;55512;50.102;19.958;2022-11-06T04:50:29;10.00;76.50
68511;SHT31;55512;50.102;19.958;2022-11-06T04:53:14;10.00;76.45
68511;SHT31;55512;50.102;19.958;2022-11-06T04:55:46;10.00;76.40
68511;SHT31;55512;50.102;19.958;2022-11-06T04:58:16;9.98;76.36
68511;SHT31;55512;50.102;19.958;2022-11-06T05:00:43;9.97;76.39
68511;SHT31;55512;50.102;19.958;2022-11-06T05:03:13;9.93;76.39
68511;SHT31;55512;50.102;19.958;2022-11-06T05:05:40;9.92;76.40
68511;SHT31;55512;50.102;19.958;2022-11-06T05:08:08;9.91;76.33
68511;SHT31;55512;50.102;19.958;2022-11-06T05:10:39;9.83;76.51
68511;SHT31;55512;50.102;19.958;2022-11-06T05:13:06;9.76;76.87
68511;SHT31;55512;50.102;19.958;2022-11-06T05:15:32;9.86;76.61
68511;SHT31;55512;50.102;19.958;2022-11-06T05:17:57;9.88;76.60
68511;SHT31;55512;50.102;19.958;2022-11-06T05:20:23;9.88;76.60
68511;SHT31;55512;50.102;19.958;2022-11-06T05:22:49;9.87;76.60
68511;SHT31;55512;50.102;19.958;2022-11-06T05:25:31;9.87;76.54
68511;SHT31;55512;50.102;19.958;2022-11-06T05:28:00;9.86;76.51
68511;SHT31;55512;50.102;19.958;2022-11-06T05:30:29;9.86;76.41
68511;SHT31;55512;50.102;19.958;2022-11-06T05:32:55;9.71;76.75
68511;SHT31;55512;50.102;19.958;2022-11-06T05:35:20;9.65;77.03
68511;SHT31;55512;50.102;19.958;2022-11-06T05:37:46;9.63;77.10
68511;SHT31;55512;50.102;19.958;2022-11-06T05:40:11;9.62;77.10
68511;SHT31;55512;50.102;19.958;2022-11-06T05:42:38;9.60;77.17
68511;SHT31;55512;50.102;19.958;2022-11-06T05:45:05;9.60;77.13
68511;SHT31;55512;50.102;19.958;2022-11-06T05:47:32;9.58;77.15
68511;SHT31;55512;50.102;19.958;2022-11-06T05:49:59;9.69;76.86
68511;SHT31;55512;50.102;19.958;2022-11-06T05:52:25;9.76;76.61
68511;SHT31;55512;50.102;19.958;2022-11-06T05:54:50;9.78;76.51
68511;SHT31;55512;50.102;19.958;2022-11-06T05:57:16;9.79;76.49
68511;SHT31;55512;50.102;19.958;2022-11-06T05:59:42;9.80;76.42
68511;SHT31;55512;50.102;19.958;2022-11-06T06:02:08;9.83;76.36
68511;SHT31;55512;50.102;19.958;2022-11-06T06:04:34;9.83;76.30
68511;SHT31;55512;50.102;19.958;2022-11-06T06:06:59;9.82;76.29
68511;SHT31;55512;50.102;19.958;2022-11-06T06:09:25;9.83;76.27
68511;SHT31;55512;50.102;19.958;2022-11-06T06:11:51;9.83;76.28
68511;SHT31;55512;50.102;19.958;2022-11-06T06:14:18;9.83;76.38
68511;SHT31;55512;50.102;19.958;2022-11-06T06:16:45;9.86;76.37
68511;SHT31;55512;50.102;19.958;2022-11-06T06:19:11;9.85;76.33
68511;SHT31;55512;50.102;19.958;2022-11-06T06:21:38;9.85;76.40
68511;SHT31;55512;50.102;19.958;2022-11-06T06:24:04;9.85;76.40
68511;SHT31;55512;50.102;19.958;2022-11-06T06:26:32;9.86;76.40
68511;SHT31;55512;50.102;19.958;2022-11-06T06:28:57;9.88;76.40
68511;SHT31;55512;50.102;19.958;2022-11-06T06:31:23;9.89;76.33
68511;SHT31;55512;50.102;19.958;2022-11-06T06:33:49;9.92;76.30
68511;SHT31;55512;50.102;19.958;2022-11-06T06:36:14;9.95;76.27
68511;SHT31;55512;50.102;19.958;2022-11-06T06:38:40;9.98;76.22
68511;SHT31;55512;50.102;19.958;2022-11-06T06:41:06;10.02;76.20
68511;SHT31;55512;50.102;19.958;2022-11-06T06:43:33;10.01;76.16
68511;SHT31;55512;50.102;19.958;2022-11-06T06:46:00;9.88;76.53
68511;SHT31;55512;50.102;19.958;2022-11-06T06:48:28;9.90;76.47
68511;SHT31;55512;50.102;19.958;2022-11-06T06:51:00;10.03;75.92
68511;SHT31;55512;50.102;19.958;2022-11-06T06:53:27;10.08;75.75
68511;SHT31;55512;50.102;19.958;2022-11-06T06:55:53;10.13;75.62
68511;SHT31;55512;50.102;19.958;2022-11-06T06:58:21;10.15;75.52
68511;SHT31;55512;50.102;19.958;2022-11-06T07:00:47;10.13;75.59
68511;SHT31;55512;50.102;19.958;2022-11-06T07:03:12;10.15;75.55
68511;SHT31;55512;50.102;19.958;2022-11-06T07:05:38;10.23;75.38
68511;SHT31;55512;50.102;19.958;2022-11-06T07:08:04;10.26;75.30
68511;SHT31;55512;50.102;19.958;2022-11-06T07:10:30;10.30;75.22
68511;SHT31;55512;50.102;19.958;2022-11-06T07:13:00;10.33;75.10
68511;SHT31;55512;50.102;19.958;2022-11-06T07:15:31;10.36;75.01
68511;SHT31;55512;50.102;19.958;2022-11-06T07:18:00;10.40;74.90
68511;SHT31;55512;50.102;19.958;2022-11-06T07:20:28;10.45;74.81
68511;SHT31;55512;50.102;19.958;2022-11-06T07:22:54;10.48;74.74
68511;SHT31;55512;50.102;19.958;2022-11-06T07:25:20;10.52;74.62
68511;SHT31;55512;50.102;19.958;2022-11-06T07:27:45;10.56;74.50
68511;SHT31;55512;50.102;19.958;2022-11-06T07:30:11;10.56;74.29
68511;SHT31;55512;50.102;19.958;2022-11-06T07:32:37;10.57;74.17
68511;SHT31;55512;50.102;19.958;2022-11-06T07:35:02;10.60;74.03
68511;SHT31;55512;50.102;19.958;2022-11-06T07:37:28;10.64;73.95
68511;SHT31;55512;50.102;19.958;2022-11-06T07:39:54;10.66;73.86
68511;SHT31;55512;50.102;19.958;2022-11-06T07:42:19;10.67;73.80
68511;SHT31;55512;50.102;19.958;2022-11-06T07:44:45;10.68;73.73
68511;SHT31;55512;50.102;19.958;2022-11-06T07:47:10;10.70;73.68
68511;SHT31;55512;50.102;19.958;2022-11-06T07:49:36;10.70;73.60
68511;SHT31;55512;50.102;19.958;2022-11-06T07:52:02;10.73;73.60
68511;SHT31;55512;50.102;19.958;2022-11-06T07:54:30;10.78;73.58
68511;SHT31;55512;50.102;19.958;2022-11-06T07:56:55;10.82;73.46
68511;SHT31;55512;50.102;19.958;2022-11-06T07:59:21;10.86;73.36
68511;SHT31;55512;50.102;19.958;2022-11-06T08:01:47;10.91;73.19
68511;SHT31;55512;50.102;19.958;2022-11-06T08:04:12;10.95;73.08
68511;SHT31;55512;50.102;19.958;2022-11-06T08:06:38;10.99;72.96
68511;SHT31;55512;50.102;19.958;2022-11-06T08:09:04;11.04;72.92
68511;SHT31;55512;50.102;19.958;2022-11-06T08:11:33;11.07;72.84
68511;SHT31;55512;50.102;19.958;2022-11-06T08:13:59;11.12;72.73
68511;SHT31;55512;50.102;19.958;2022-11-06T08:16:25;11.12;72.50
68511;SHT31;55512;50.102;19.958;2022-11-06T08:18:51;11.11;72.40
68511;SHT31;55512;50.102;19.958;2022-11-06T08:21:17;11.10;72.41
68511;SHT31;55512;50.102;19.958;2022-11-06T08:23:42;11.12;72.43
68511;SHT31;55512;50.102;19.958;2022-11-06T08:26:09;11.16;72.49
68511;SHT31;55512;50.102;19.958;2022-11-06T08:28:35;11.20;72.35
68511;SHT31;55512;50.102;19.958;2022-11-06T08:31:04;11.24;72.21
68511;SHT31;55512;50.102;19.958;2022-11-06T08:33:31;11.29;72.12
68511;SHT31;55512;50.102;19.958;2022-11-06T08:36:01;11.33;72.03
68511;SHT31;55512;50.102;19.958;2022-11-06T08:38:29;11.38;71.94
68511;SHT31;55512;50.102;19.958;2022-11-06T08:40:55;11.43;71.86
68511;SHT31;55512;50.102;19.958;2022-11-06T08:43:21;11.47;71.72
68511;SHT31;55512;50.102;19.958;2022-11-06T08:45:51;11.46;71.77
68511;SHT31;55512;50.102;19.958;2022-11-06T08:48:17;11.35;72.12
68511;SHT31;55512;50.102;19.958;2022-11-06T08:50:43;11.47;71.82
68511;SHT31;55512;50.102;19.958;2022-11-06T08:53:09;11.55;71.52
68511;SHT31;55512;50.102;19.958;2022-11-06T08:55:35;11.58;71.42
68511;SHT31;55512;50.102;19.958;2022-11-06T08:58:03;11.60;71.40
68511;SHT31;55512;50.102;19.958;2022-11-06T09:00:30;11.64;71.41
68511;SHT31;55512;50.102;19.958;2022-11-06T09:03:15;11.68;71.37
68511;SHT31;55512;50.102;19.958;2022-11-06T09:05:44;11.71;71.26
68511;SHT31;55512;50.102;19.958;2022-11-06T09:08:11;11.77;71.17
68511;SHT31;55512;50.102;19.958;2022-11-06T09:10:39;11.81;71.06
68511;SHT31;55512;50.102;19.958;2022-11-06T09:13:07;11.82;70.96
68511;SHT31;55512;50.102;19.958;2022-11-06T09:15:33;11.85;70.94
68511;SHT31;55512;50.102;19.958;2022-11-06T09:17:58;11.85;70.92
68511;SHT31;55512;50.102;19.958;2022-11-06T09:20:24;11.89;70.82
68511;SHT31;55512;50.102;19.958;2022-11-06T09:22:51;11.88;70.82
68511;SHT31;55512;50.102;19.958;2022-11-06T09:25:17;11.86;70.79
68511;SHT31;55512;50.102;19.958;2022-11-06T09:27:44;11.83;70.83
68511;SHT31;55512;50.102;19.958;2022-11-06T09:30:16;11.84;70.85
68511;SHT31;55512;50.102;19.958;2022-11-06T09:32:48;11.88;70.85
68511;SHT31;55512;50.102;19.958;2022-11-06T09:35:20;11.91;70.87
68511;SHT31;55512;50.102;19.958;2022-11-06T09:37:47;11.96;70.86
68511;SHT31;55512;50.102;19.958;2022-11-06T09:45:42;11.95;70.80
68511;SHT31;55512;50.102;19.958;2022-11-06T09:50:41;12.01;70.82
68511;SHT31;55512;50.102;19.958;2022-11-06T09:53:21;12.02;70.79
68511;SHT31;55512;50.102;19.958;2022-11-06T09:55:52;12.03;70.83
68511;SHT31;55512;50.102;19.958;2022-11-06T09:58:27;12.06;70.90
68511;SHT31;55512;50.102;19.958;2022-11-06T10:01:09;12.09;70.90
68511;SHT31;55512;50.102;19.958;2022-11-06T10:03:53;12.12;70.92
68511;SHT31;55512;50.102;19.958;2022-11-06T10:06:23;12.16;70.90
68511;SHT31;55512;50.102;19.958;2022-11-06T10:08:51;12.19;70.75
68511;SHT31;55512;50.102;19.958;2022-11-06T10:14:27;12.21;70.60
68511;SHT31;55512;50.102;19.958;2022-11-06T10:19:58;12.27;70.54
68511;SHT31;55512;50.102;19.958;2022-11-06T10:22:40;12.31;70.48
68511;SHT31;55512;50.102;19.958;2022-11-06T10:25:41;12.33;70.41
68511;SHT31;55512;50.102;19.958;2022-11-06T10:34:16;12.34;70.30
68511;SHT31;55512;50.102;19.958;2022-11-06T10:36:56;12.35;70.28
68511;SHT31;55512;50.102;19.958;2022-11-06T10:39:33;12.38;70.03
68511;SHT31;55512;50.102;19.958;2022-11-06T10:47:34;12.38;69.83
68511;SHT31;55512;50.102;19.958;2022-11-06T10:50:10;12.39;69.61
68511;SHT31;55512;50.102;19.958;2022-11-06T10:58:44;12.14;69.62
68511;SHT31;55512;50.102;19.958;2022-11-06T11:01:11;12.14;69.85
68511;SHT31;55512;50.102;19.958;2022-11-06T11:03:40;12.16;69.93
68511;SHT31;55512;50.102;19.958;2022-11-06T11:06:08;12.18;69.79
68511;SHT31;55512;50.102;19.958;2022-11-06T11:13:39;12.20;69.70
68511;SHT31;55512;50.102;19.958;2022-11-06T11:16:39;12.19;69.70
68511;SHT31;55512;50.102;19.958;2022-11-06T11:19:21;12.22;69.79
68511;SHT31;55512;50.102;19.958;2022-11-06T11:22:21;12.28;69.86
68511;SHT31;55512;50.102;19.958;2022-11-06T11:25:07;12.36;69.83
68511;SHT31;55512;50.102;19.958;2022-11-06T11:27:49;12.45;69.68
68511;SHT31;55512;50.102;19.958;2022-11-06T11:30:22;12.50;69.43
68511;SHT31;55512;50.102;19.958;2022-11-06T11:32:54;12.53;69.38
68511;SHT31;55512;50.102;19.958;2022-11-06T11:35:29;12.59;69.33
68511;SHT31;55512;50.102;19.958;2022-11-06T11:38:05;12.61;69.31
68511;SHT31;55512;50.102;19.958;2022-11-06T11:40:37;12.65;69.30
68511;SHT31;55512;50.102;19.958;2022-11-06T11:43:26;12.66;69.30
68511;SHT31;55512;50.102;19.958;2022-11-06T11:48:44;12.66;69.28
68511;SHT31;55512;50.102;19.958;2022-11-06T11:51:17;12.66;69.28
68511;SHT31;55512;50.102;19.958;2022-11-06T11:59:32;12.54;68.94
68511;SHT31;55512;50.102;19.958;2022-11-06T12:02:25;12.49;69.08
68511;SHT31;55512;50.102;19.958;2022-11-06T12:05:04;12.50;69.08
68511;SHT31;55512;50.102;19.958;2022-11-06T12:07:39;12.49;69.00
68511;SHT31;55512;50.102;19.958;2022-11-06T12:12:46;12.47;68.80
68511;SHT31;55512;50.102;19.958;2022-11-06T12:15:19;12.45;68.65
68511;SHT31;55512;50.102;19.958;2022-11-06T12:17:54;12.41;68.59
68511;SHT31;55512;50.102;19.958;2022-11-06T12:20:48;12.36;68.36
68511;SHT31;55512;50.102;19.958;2022-11-06T12:27:03;12.26;68.79
68511;SHT31;55512;50.102;19.958;2022-11-06T12:29:38;12.27;68.97
68511;SHT31;55512;50.102;19.958;2022-11-06T12:32:17;12.30;69.00
68511;SHT31;55512;50.102;19.958;2022-11-06T12:41:22;12.34;68.75
68511;SHT31;55512;50.102;19.958;2022-11-06T12:43:54;12.36;68.44
68511;SHT31;55512;50.102;19.958;2022-11-06T12:49:30;12.32;68.06
68511;SHT31;55512;50.102;19.958;2022-11-06T12:55:50;12.28;68.19
68511;SHT31;55512;50.102;19.958;2022-11-06T12:58:34;12.29;68.27
68511;SHT31;55512;50.102;19.958;2022-11-06T13:01:25;12.27;68.21
68511;SHT31;55512;50.102;19.958;2022-11-06T13:10:50;12.15;68.57
68511;SHT31;55512;50.102;19.958;2022-11-06T13:17:00;12.04;68.76
68511;SHT31;55512;50.102;19.958;2022-11-06T13:19:49;11.97;68.93
68511;SHT31;55512;50.102;19.958;2022-11-06T13:28:18;11.91;69.25
68511;SHT31;55512;50.102;19.958;2022-11-06T13:31:11;11.90;69.43
68511;SHT31;55512;50.102;19.958;2022-11-06T13:33:44;11.91;69.50
68511;SHT31;55512;50.102;19.958;2022-11-06T13:36:14;11.92;69.58
68511;SHT31;55512;50.102;19.958;2022-11-06T13:38:46;11.93;69.56
68511;SHT31;55512;50.102;19.958;2022-11-06T13:41:26;11.93;69.58
68511;SHT31;55512;50.102;19.958;2022-11-06T13:44:02;11.94;69.53
68511;SHT31;55512;50.102;19.958;2022-11-06T13:51:51;11.97;69.50
68511;SHT31;55512;50.102;19.958;2022-11-06T13:57:13;11.97;69.28
68511;SHT31;55512;50.102;19.958;2022-11-06T13:59:53;11.97;69.23
68511;SHT31;55512;50.102;19.958;2022-11-06T14:02:43;11.97;69.18
68511;SHT31;55512;50.102;19.958;2022-11-06T14:05:45;11.94;69.18
68511;SHT31;55512;50.102;19.958;2022-11-06T14:08:16;11.95;69.10
68511;SHT31;55512;50.102;19.958;2022-11-06T14:11:10;11.95;69.01
68511;SHT31;55512;50.102;19.958;2022-11-06T14:13:40;11.97;68.93
68511;SHT31;55512;50.102;19.958;2022-11-06T14:18:53;12.01;68.71
68511;SHT31;55512;50.102;19.958;2022-11-06T14:21:42;12.02;68.70
68511;SHT31;55512;50.102;19.958;2022-11-06T14:26:53;12.03;68.59
68511;SHT31;55512;50.102;19.958;2022-11-06T14:34:45;12.09;68.44
68511;SHT31;55512;50.102;19.958;2022-11-06T14:40:01;12.11;68.40
68511;SHT31;55512;50.102;19.958;2022-11-06T14:42:30;12.09;68.40
68511;SHT31;55512;50.102;19.958;2022-11-06T14:47:41;12.06;68.26
68511;SHT31;55512;50.102;19.958;2022-11-06T14:52:47;12.07;68.11
68511;SHT31;55512;50.102;19.958;2022-11-06T14:58:10;12.08;68.03
68511;SHT31;55512;50.102;19.958;2022-11-06T15:03:53;12.04;68.08
68511;SHT31;55512;50.102;19.958;2022-11-06T15:06:43;11.99;68.10
68511;SHT31;55512;50.102;19.958;2022-11-06T15:11:49;11.87;68.16
68511;SHT31;55512;50.102;19.958;2022-11-06T15:16:59;11.78;68.22
68511;SHT31;55512;50.102;19.958;2022-11-06T15:19:36;11.74;68.27
68511;SHT31;55512;50.102;19.958;2022-11-06T15:22:35;11.71;68.30
68511;SHT31;55512;50.102;19.958;2022-11-06T15:27:42;11.64;68.45
68511;SHT31;55512;50.102;19.958;2022-11-06T15:30:15;11.61;68.55
68511;SHT31;55512;50.102;19.958;2022-11-06T15:32:44;11.59;68.66
68511;SHT31;55512;50.102;19.958;2022-11-06T15:37:47;11.52;68.80
68511;SHT31;55512;50.102;19.958;2022-11-06T15:40:21;11.50;68.80
68511;SHT31;55512;50.102;19.958;2022-11-06T15:42:55;11.49;68.80
68511;SHT31;55512;50.102;19.958;2022-11-06T15:45:25;11.47;68.73
68511;SHT31;55512;50.102;19.958;2022-11-06T15:47:54;11.44;68.70
68511;SHT31;55512;50.102;19.958;2022-11-06T15:50:35;11.44;68.66
68511;SHT31;55512;50.102;19.958;2022-11-06T15:58:33;11.45;68.46
68511;SHT31;55512;50.102;19.958;2022-11-06T16:01:02;11.45;68.40
68511;SHT31;55512;50.102;19.958;2022-11-06T16:03:31;11.43;68.35
68511;SHT31;55512;50.102;19.958;2022-11-06T16:06:12;11.42;68.30
68511;SHT31;55512;50.102;19.958;2022-11-06T16:08:38;11.39;68.30
68511;SHT31;55512;50.102;19.958;2022-11-06T16:11:05;11.40;68.31
68511;SHT31;55512;50.102;19.958;2022-11-06T16:13:37;11.40;68.40
68511;SHT31;55512;50.102;19.958;2022-11-06T16:16:26;11.40;68.50
68511;SHT31;55512;50.102;19.958;2022-11-06T16:19:03;11.39;68.59
68511;SHT31;55512;50.102;19.958;2022-11-06T16:21:46;11.39;68.60
68511;SHT31;55512;50.102;19.958;2022-11-06T16:24:18;11.38;68.66
68511;SHT31;55512;50.102;19.958;2022-11-06T16:26:44;11.38;68.70
68511;SHT31;55512;50.102;19.958;2022-11-06T16:29:23;11.38;68.73
68511;SHT31;55512;50.102;19.958;2022-11-06T16:34:41;11.37;68.80
68511;SHT31;55512;50.102;19.958;2022-11-06T16:39:48;11.36;68.86
68511;SHT31;55512;50.102;19.958;2022-11-06T16:44:48;11.35;68.93
68511;SHT31;55512;50.102;19.958;2022-11-06T16:47:23;11.35;69.00
68511;SHT31;55512;50.102;19.958;2022-11-06T16:49:52;11.35;69.00
68511;SHT31;55512;50.102;19.958;2022-11-06T16:52:30;11.38;69.00
68511;SHT31;55512;50.102;19.958;2022-11-06T16:55:05;11.39;69.09
68511;SHT31;55512;50.102;19.958;2022-11-06T16:57:50;11.40;69.08
68511;SHT31;55512;50.102;19.958;2022-11-06T17:00:24;11.40;69.09
68511;SHT31;55512;50.102;19.958;2022-11-06T17:05:29;11.43;69.15
68511;SHT31;55512;50.102;19.958;2022-11-06T17:08:07;11.43;69.20
68511;SHT31;55512;50.102;19.958;2022-11-06T17:10:57;11.45;69.22
68511;SHT31;55512;50.102;19.958;2022-11-06T17:13:42;11.44;69.23
68511;SHT31;55512;50.102;19.958;2022-11-06T17:16:20;11.45;69.30
68511;SHT31;55512;50.102;19.958;2022-11-06T17:18:50;11.45;69.30
68511;SHT31;55512;50.102;19.958;2022-11-06T17:21:17;11.45;69.30
68511;SHT31;55512;50.102;19.958;2022-11-06T17:23:48;11.46;69.30
68511;SHT31;55512;50.102;19.958;2022-11-06T17:26:26;11.44;69.30
68511;SHT31;55512;50.102;19.958;2022-11-06T17:28:55;11.44;69.37
68511;SHT31;55512;50.102;19.958;2022-11-06T17:31:22;11.44;69.35
68511;SHT31;55512;50.102;19.958;2022-11-06T17:33:49;11.44;69.40
68511;SHT31;55512;50.102;19.958;2022-11-06T17:36:23;11.44;69.40
68511;SHT31;55512;50.102;19.958;2022-11-06T17:38:50;11.46;69.44
68511;SHT31;55512;50.102;19.958;2022-11-06T17:41:18;11.47;69.47
68511;SHT31;55512;50.102;19.958;2022-11-06T17:43:58;11.48;69.48
68511;SHT31;55512;50.102;19.958;2022-11-06T17:46:26;11.48;69.52
68511;SHT31;55512;50.102;19.958;2022-11-06T17:48:57;11.48;69.60
68511;SHT31;55512;50.102;19.958;2022-11-06T17:51:24;11.48;69.66
68511;SHT31;55512;50.102;19.958;2022-11-06T17:54:10;11.50;69.70
68511;SHT31;55512;50.102;19.958;2022-11-06T17:56:36;11.50;69.73
68511;SHT31;55512;50.102;19.958;2022-11-06T17:59:03;11.50;69.80
68511;SHT31;55512;50.102;19.958;2022-11-06T18:01:29;11.50;69.83
68511;SHT31;55512;50.102;19.958;2022-11-06T18:03:54;11.49;69.90
68511;SHT31;55512;50.102;19.958;2022-11-06T18:06:20;11.47;69.93
68511;SHT31;55512;50.102;19.958;2022-11-06T18:08:46;11.47;70.02
68511;SHT31;55512;50.102;19.958;2022-11-06T18:11:11;11.47;70.09
68511;SHT31;55512;50.102;19.958;2022-11-06T18:13:37;11.46;70.10
68511;SHT31;55512;50.102;19.958;2022-11-06T18:16:12;11.45;70.16
68511;SHT31;55512;50.102;19.958;2022-11-06T18:18:47;11.45;70.21
68511;SHT31;55512;50.102;19.958;2022-11-06T18:21:13;11.44;70.30
68511;SHT31;55512;50.102;19.958;2022-11-06T18:23:39;11.45;70.37
68511;SHT31;55512;50.102;19.958;2022-11-06T18:26:06;11.44;70.43
68511;SHT31;55512;50.102;19.958;2022-11-06T18:28:32;11.43;70.52
68511;SHT31;55512;50.102;19.958;2022-11-06T18:30:58;11.43;70.59
68511;SHT31;55512;50.102;19.958;2022-11-06T18:33:24;11.46;70.69
68511;SHT31;55512;50.102;19.958;2022-11-06T18:35:49;11.46;70.77
68511;SHT31;55512;50.102;19.958;2022-11-06T18:38:16;11.46;70.80
68511;SHT31;55512;50.102;19.958;2022-11-06T18:40:42;11.46;70.85
68511;SHT31;55512;50.102;19.958;2022-11-06T18:43:08;11.48;70.90
68511;SHT31;55512;50.102;19.958;2022-11-06T18:45:37;11.49;70.92
68511;SHT31;55512;50.102;19.958;2022-11-06T18:48:07;11.49;70.96